createdAt,value
2018-07-31T00:00:59.598Z,4.60
2018-07-31T00:01:59.585Z,4.80
2018-07-31T00:02:59.574Z,4.80
2018-07-31T00:03:59.577Z,4.50
2018-07-31T00:04:59.556Z,4.20
2018-07-31T00:05:59.546Z,4.10
2018-07-31T00:06:59.537Z,4.20
2018-07-31T00:07:59.532Z,4.00
2018-07-31T00:08:59.513Z,4.10
2018-07-31T00:09:59.543Z,4.40
2018-07-31T00:10:59.498Z,4.20
2018-07-31T00:11:59.483Z,4.10
2018-07-31T00:12:59.481Z,4.00
2018-07-31T00:13:59.462Z,4.20
2018-07-31T00:14:59.450Z,4.30
2018-07-31T00:15:59.443Z,3.90
2018-07-31T00:16:59.430Z,4.10
2018-07-31T00:17:59.421Z,4.20
2018-07-31T00:18:59.421Z,3.90
2018-07-31T00:19:59.399Z,4.40
2018-07-31T00:20:59.388Z,3.90
2018-07-31T00:21:59.381Z,3.90
2018-07-31T00:22:59.377Z,4.50
2018-07-31T00:23:59.359Z,4.20
2018-07-31T00:24:59.352Z,4.50
2018-07-31T00:26:43.464Z,4.20
2018-07-31T00:27:43.458Z,4.20
2018-07-31T00:28:43.449Z,4.30
2018-07-31T00:29:43.431Z,3.90
2018-07-31T00:30:43.429Z,4.10
2018-07-31T00:31:43.416Z,3.60
2018-07-31T00:32:43.568Z,4.00
2018-07-31T00:33:43.388Z,4.20
2018-07-31T00:34:43.387Z,3.70
2018-07-31T00:35:43.372Z,4.20
2018-07-31T00:36:43.359Z,4.10
2018-07-31T00:37:43.350Z,4.20
2018-07-31T00:38:43.336Z,4.10
2018-07-31T00:39:43.323Z,4.10
2018-07-31T00:40:43.314Z,4.30
2018-07-31T00:41:43.304Z,3.90
2018-07-31T00:42:43.292Z,3.70
2018-07-31T00:43:43.286Z,3.70
2018-07-31T00:44:43.269Z,3.90
2018-07-31T00:45:43.261Z,3.90
2018-07-31T00:46:43.277Z,3.90
2018-07-31T00:47:43.240Z,4.10
2018-07-31T00:48:43.229Z,4.30
2018-07-31T00:49:43.217Z,3.80
2018-07-31T00:50:43.205Z,4.30
2018-07-31T00:51:43.202Z,4.10
2018-07-31T00:52:43.183Z,3.80
2018-07-31T00:53:43.175Z,4.10
2018-07-31T00:54:43.164Z,4.50
2018-07-31T00:55:43.151Z,4.50
2018-07-31T00:56:43.144Z,3.90
2018-07-31T00:57:43.146Z,4.30
2018-07-31T00:58:43.131Z,4.10
2018-07-31T00:59:43.107Z,3.90
2018-07-31T01:00:43.099Z,4.20
2018-07-31T01:01:43.089Z,4.30
2018-07-31T01:02:43.088Z,4.10
2018-07-31T01:03:43.064Z,3.80
2018-07-31T01:04:43.055Z,4.30
2018-07-31T01:05:43.051Z,4.00
2018-07-31T01:06:43.040Z,4.30
2018-07-31T01:07:46.660Z,4.50
2018-07-31T01:08:43.010Z,4.30
2018-07-31T01:09:46.635Z,4.60
2018-07-31T01:10:42.999Z,4.60
2018-07-31T01:12:42.441Z,4.40
2018-07-31T01:13:42.418Z,4.40
2018-07-31T01:14:42.406Z,4.30
2018-07-31T01:15:42.395Z,4.20
2018-07-31T01:16:42.387Z,4.60
2018-07-31T01:17:42.372Z,4.20
2018-07-31T01:18:42.365Z,4.00
2018-07-31T01:19:42.350Z,4.40
2018-07-31T01:20:42.341Z,4.80
2018-07-31T01:21:42.331Z,4.80
2018-07-31T01:22:42.320Z,4.60
2018-07-31T01:23:42.309Z,4.10
2018-07-31T01:24:42.296Z,5.00
2018-07-31T01:25:42.283Z,4.60
2018-07-31T01:26:42.273Z,5.00
2018-07-31T01:27:42.344Z,4.90
2018-07-31T01:29:15.461Z,4.90
2018-07-31T01:29:42.240Z,4.60
2018-07-31T01:30:42.232Z,4.90
2018-07-31T01:31:42.218Z,4.80
2018-07-31T01:32:42.208Z,4.70
2018-07-31T01:33:42.200Z,4.60
2018-07-31T01:34:42.183Z,5.10
2018-07-31T01:35:42.172Z,5.00
2018-07-31T01:36:42.164Z,5.00
2018-07-31T01:37:42.151Z,5.50
2018-07-31T01:38:44.762Z,5.00
2018-07-31T01:39:42.128Z,5.30
2018-07-31T01:40:42.120Z,5.80
2018-07-31T01:41:42.106Z,5.20
2018-07-31T01:42:42.093Z,6.20
2018-07-31T01:43:42.084Z,6.00
2018-07-31T01:44:42.071Z,5.80
2018-07-31T01:45:42.082Z,5.60
2018-07-31T01:46:42.049Z,5.90
2018-07-31T01:47:42.041Z,5.90
2018-07-31T01:48:42.030Z,5.30
2018-07-31T01:49:42.017Z,6.50
2018-07-31T01:50:42.008Z,5.60
2018-07-31T01:51:41.995Z,5.70
2018-07-31T01:52:41.992Z,6.20
2018-07-31T01:53:41.971Z,6.70
2018-07-31T01:54:41.970Z,6.60
2018-07-31T01:55:41.947Z,6.60
2018-07-31T01:56:41.938Z,7.40
2018-07-31T01:57:41.932Z,7.10
2018-07-31T01:58:41.915Z,7.40
2018-07-31T01:59:41.944Z,7.20
2018-07-31T02:00:41.897Z,8.00
2018-07-31T02:01:41.884Z,7.60
2018-07-31T02:02:41.870Z,7.50
2018-07-31T02:03:41.857Z,7.50
2018-07-31T02:04:41.847Z,7.60
2018-07-31T02:05:41.839Z,8.10
2018-07-31T02:06:41.826Z,8.20
2018-07-31T02:07:41.966Z,8.30
2018-07-31T02:08:41.832Z,7.80
2018-07-31T02:09:41.791Z,8.30
2018-07-31T02:10:41.779Z,7.50
2018-07-31T02:11:45.023Z,8.60
2018-07-31T02:12:41.754Z,7.80
2018-07-31T02:13:41.750Z,8.30
2018-07-31T02:14:41.732Z,7.60
2018-07-31T02:15:41.726Z,7.90
2018-07-31T02:16:44.331Z,8.10
2018-07-31T02:17:41.706Z,9.00
2018-07-31T02:18:41.697Z,8.50
2018-07-31T02:19:41.673Z,8.90
2018-07-31T02:20:41.662Z,8.70
2018-07-31T02:21:41.657Z,8.10
2018-07-31T02:22:41.644Z,9.50
2018-07-31T02:23:41.779Z,8.40
2018-07-31T02:24:41.617Z,8.90
2018-07-31T02:25:41.608Z,8.90
2018-07-31T02:26:41.627Z,8.80
2018-07-31T02:27:41.600Z,8.80
2018-07-31T02:28:41.605Z,9.10
2018-07-31T02:29:41.563Z,8.90
2018-07-31T02:30:41.554Z,9.00
2018-07-31T02:31:41.537Z,9.10
2018-07-31T02:32:41.524Z,9.30
2018-07-31T02:33:41.512Z,9.80
2018-07-31T02:34:41.503Z,9.20
2018-07-31T02:35:41.490Z,9.90
2018-07-31T02:36:41.480Z,9.60
2018-07-31T02:37:41.470Z,9.00
2018-07-31T02:38:41.467Z,10.10
2018-07-31T02:39:41.443Z,9.60
2018-07-31T02:40:41.430Z,10.60
2018-07-31T02:41:41.425Z,9.70
2018-07-31T02:42:41.406Z,10.40
2018-07-31T02:43:41.395Z,11.10
2018-07-31T02:44:41.385Z,10.30
2018-07-31T02:45:41.373Z,11.40
2018-07-31T02:46:41.361Z,11.20
2018-07-31T02:47:41.435Z,11.50
2018-07-31T02:48:41.340Z,12.40
2018-07-31T02:49:41.331Z,11.50
2018-07-31T02:50:41.316Z,11.50
2018-07-31T02:51:41.304Z,12.10
2018-07-31T02:52:41.293Z,11.30
2018-07-31T02:53:41.289Z,12.40
2018-07-31T02:54:41.269Z,12.40
2018-07-31T02:55:41.260Z,12.90
2018-07-31T02:57:35.389Z,13.10
2018-07-31T02:58:35.377Z,12.20
2018-07-31T02:59:35.361Z,13.70
2018-07-31T03:00:35.362Z,14.80
2018-07-31T03:01:35.346Z,13.70
2018-07-31T03:02:35.327Z,13.00
2018-07-31T03:03:35.338Z,15.20
2018-07-31T03:04:35.305Z,15.10
2018-07-31T03:05:35.299Z,15.90
2018-07-31T03:06:35.281Z,15.70
2018-07-31T03:07:35.268Z,15.10
2018-07-31T03:08:35.262Z,15.90
2018-07-31T03:09:35.248Z,16.70
2018-07-31T03:10:35.234Z,16.40
2018-07-31T03:11:35.224Z,15.70
2018-07-31T03:12:35.212Z,16.90
2018-07-31T03:13:35.198Z,16.60
2018-07-31T03:14:35.188Z,16.90
2018-07-31T03:15:35.172Z,17.80
2018-07-31T03:16:35.199Z,17.60
2018-07-31T03:17:35.149Z,16.90
2018-07-31T03:18:35.145Z,17.10
2018-07-31T03:19:35.164Z,17.60
2018-07-31T03:20:35.124Z,18.50
2018-07-31T03:21:35.111Z,17.70
2018-07-31T03:22:35.097Z,18.60
2018-07-31T03:23:35.090Z,18.30
2018-07-31T03:24:35.069Z,17.30
2018-07-31T03:25:35.059Z,18.00
2018-07-31T03:26:35.046Z,17.30
2018-07-31T03:27:35.036Z,17.90
2018-07-31T03:28:35.021Z,17.90
2018-07-31T03:29:35.016Z,18.00
2018-07-31T03:30:35.008Z,17.70
2018-07-31T03:31:34.986Z,18.40
2018-07-31T03:33:08.186Z,18.50
2018-07-31T03:33:34.960Z,19.30
2018-07-31T03:34:34.949Z,18.20
2018-07-31T03:35:34.938Z,18.60
2018-07-31T03:36:34.926Z,17.80
2018-07-31T03:37:34.915Z,18.70
2018-07-31T03:38:34.902Z,18.00
2018-07-31T03:39:34.888Z,19.70
2018-07-31T03:40:35.047Z,18.90
2018-07-31T03:42:08.075Z,17.50
2018-07-31T03:42:38.284Z,18.30
2018-07-31T03:43:34.910Z,18.90
2018-07-31T03:44:34.834Z,19.90
2018-07-31T03:45:34.821Z,19.60
2018-07-31T03:46:34.807Z,19.10
2018-07-31T03:47:34.795Z,18.60
2018-07-31T03:48:34.785Z,18.10
2018-07-31T03:49:34.769Z,19.00
2018-07-31T03:50:34.756Z,17.60
2018-07-31T03:51:34.744Z,18.40
2018-07-31T03:52:34.733Z,19.00
2018-07-31T03:53:34.724Z,18.10
2018-07-31T03:54:34.713Z,17.30
2018-07-31T03:55:34.739Z,18.40
2018-07-31T03:56:34.803Z,17.30
2018-07-31T03:57:34.673Z,18.40
2018-07-31T03:58:34.658Z,19.60
2018-07-31T04:00:07.857Z,19.80
2018-07-31T04:00:34.631Z,18.10
2018-07-31T04:01:34.624Z,17.90
2018-07-31T04:02:34.611Z,18.80
2018-07-31T04:03:34.602Z,18.40
2018-07-31T04:04:34.600Z,17.50
2018-07-31T04:05:34.643Z,17.40
2018-07-31T04:06:34.564Z,18.80
2018-07-31T04:07:34.552Z,19.20
2018-07-31T04:08:34.541Z,17.90
2018-07-31T04:09:34.525Z,18.60
2018-07-31T04:10:34.512Z,16.20
2018-07-31T04:11:34.509Z,19.60
2018-07-31T04:12:34.517Z,19.40
2018-07-31T04:13:34.481Z,19.00
2018-07-31T04:14:34.466Z,18.40
2018-07-31T04:15:34.459Z,16.60
2018-07-31T04:16:34.443Z,17.20
2018-07-31T04:17:34.430Z,17.70
2018-07-31T04:18:34.437Z,17.60
2018-07-31T04:19:34.406Z,18.80
2018-07-31T04:20:34.396Z,19.50
2018-07-31T04:21:34.379Z,18.70
2018-07-31T04:22:34.369Z,19.30
2018-07-31T04:23:34.356Z,18.30
2018-07-31T04:24:34.352Z,18.60
2018-07-31T04:25:34.335Z,17.30
2018-07-31T04:26:34.322Z,17.90
2018-07-31T04:27:34.309Z,16.70
2018-07-31T04:28:34.299Z,16.30
2018-07-31T04:29:34.283Z,17.90
2018-07-31T04:30:34.274Z,19.10
2018-07-31T04:31:34.261Z,18.50
2018-07-31T04:32:34.259Z,17.10
2018-07-31T04:33:34.236Z,17.70
2018-07-31T04:34:34.228Z,16.30
2018-07-31T04:35:34.215Z,17.00
2018-07-31T04:36:34.221Z,16.70
2018-07-31T04:37:34.188Z,16.90
2018-07-31T04:38:34.177Z,16.20
2018-07-31T04:39:34.169Z,15.90
2018-07-31T04:40:34.153Z,15.20
2018-07-31T04:41:34.142Z,16.50
2018-07-31T04:42:34.130Z,15.60
2018-07-31T04:43:34.118Z,15.80
2018-07-31T04:44:34.110Z,15.80
2018-07-31T04:45:34.092Z,17.20
2018-07-31T04:46:34.079Z,17.70
2018-07-31T04:47:34.070Z,16.60
2018-07-31T04:48:34.056Z,16.70
2018-07-31T04:49:34.046Z,16.50
2018-07-31T04:50:34.036Z,17.20
2018-07-31T04:51:34.030Z,16.80
2018-07-31T04:52:34.139Z,15.80
2018-07-31T04:53:33.997Z,16.80
2018-07-31T04:54:33.986Z,17.40
2018-07-31T04:55:33.986Z,15.70
2018-07-31T04:56:33.965Z,16.60
2018-07-31T04:57:33.957Z,14.50
2018-07-31T04:58:33.938Z,15.50
2018-07-31T04:59:33.927Z,14.90
2018-07-31T05:00:33.914Z,14.40
2018-07-31T05:01:33.903Z,15.70
2018-07-31T05:02:33.894Z,15.00
2018-07-31T05:03:33.879Z,16.40
2018-07-31T05:04:33.874Z,17.20
2018-07-31T05:05:33.860Z,16.00
2018-07-31T05:06:33.844Z,17.60
2018-07-31T05:07:33.834Z,15.60
2018-07-31T05:08:33.930Z,15.90
2018-07-31T05:09:33.811Z,15.50
2018-07-31T05:10:33.796Z,16.20
2018-07-31T05:11:33.784Z,14.80
2018-07-31T05:12:33.783Z,17.10
2018-07-31T05:13:33.774Z,15.00
2018-07-31T05:14:33.751Z,13.50
2018-07-31T05:15:33.741Z,14.90
2018-07-31T05:16:33.726Z,14.90
2018-07-31T05:17:33.717Z,15.40
2018-07-31T05:18:33.703Z,14.70
2018-07-31T05:19:33.743Z,14.90
2018-07-31T05:20:33.680Z,14.50
2018-07-31T05:21:33.670Z,14.00
2018-07-31T05:22:33.657Z,13.80
2018-07-31T05:23:33.645Z,14.60
2018-07-31T05:24:33.633Z,14.60
2018-07-31T05:25:33.623Z,14.10
2018-07-31T05:26:33.620Z,13.60
2018-07-31T05:27:33.598Z,14.10
2018-07-31T05:28:33.592Z,12.90
2018-07-31T05:29:33.577Z,14.30
2018-07-31T05:30:33.567Z,14.10
2018-07-31T05:31:33.556Z,13.40
2018-07-31T05:32:33.573Z,13.90
2018-07-31T05:33:33.535Z,13.70
2018-07-31T05:34:33.520Z,13.40
2018-07-31T05:35:33.562Z,13.90
2018-07-31T05:36:33.501Z,13.40
2018-07-31T05:37:33.486Z,13.50
2018-07-31T05:38:33.476Z,14.40
2018-07-31T05:39:33.500Z,12.70
2018-07-31T05:40:33.453Z,11.80
2018-07-31T05:41:33.443Z,12.70
2018-07-31T05:42:33.449Z,13.20
2018-07-31T05:43:33.419Z,12.40
2018-07-31T05:44:33.410Z,12.80
2018-07-31T05:45:33.400Z,11.10
2018-07-31T05:46:33.393Z,11.70
2018-07-31T05:47:33.388Z,12.20
2018-07-31T05:48:33.514Z,11.20
2018-07-31T05:49:33.370Z,11.20
2018-07-31T05:50:33.352Z,10.70
2018-07-31T05:51:33.388Z,11.30
2018-07-31T05:52:33.333Z,10.90
2018-07-31T05:53:33.326Z,10.70
2018-07-31T05:54:33.320Z,11.50
2018-07-31T05:55:33.309Z,11.00
2018-07-31T05:56:33.301Z,11.20
2018-07-31T05:57:33.378Z,11.00
2018-07-31T05:58:33.288Z,10.30
2018-07-31T05:59:33.281Z,11.30
2018-07-31T06:00:33.271Z,9.70
2018-07-31T06:01:33.268Z,10.00
2018-07-31T06:02:33.276Z,10.90
2018-07-31T06:03:33.302Z,11.10
2018-07-31T06:04:33.310Z,10.40
2018-07-31T06:05:33.240Z,9.60
2018-07-31T06:06:33.254Z,10.30
2018-07-31T06:07:33.228Z,10.90
2018-07-31T06:08:33.233Z,10.20
2018-07-31T06:09:33.384Z,9.70
2018-07-31T06:10:33.213Z,9.60
2018-07-31T06:11:33.610Z,10.50
2018-07-31T06:12:33.214Z,9.70
2018-07-31T06:13:33.197Z,10.10
2018-07-31T06:14:33.206Z,10.10
2018-07-31T06:15:33.197Z,10.00
2018-07-31T06:16:33.182Z,11.80
2018-07-31T06:17:33.181Z,10.90
2018-07-31T06:18:33.175Z,10.90
2018-07-31T06:19:33.176Z,10.30
2018-07-31T06:20:33.172Z,9.80
2018-07-31T06:21:33.165Z,9.60
2018-07-31T06:22:33.280Z,10.50
2018-07-31T06:23:33.160Z,10.30
2018-07-31T06:24:33.160Z,9.50
2018-07-31T06:25:33.244Z,10.30
2018-07-31T06:26:33.157Z,10.30
2018-07-31T06:27:33.156Z,9.40
2018-07-31T06:28:33.147Z,10.20
2018-07-31T06:29:33.163Z,9.80
2018-07-31T06:30:33.144Z,9.60
2018-07-31T06:31:33.140Z,11.60
2018-07-31T06:32:33.138Z,11.20
2018-07-31T06:33:33.138Z,10.50
2018-07-31T06:34:33.135Z,10.40
2018-07-31T06:35:33.140Z,10.20
2018-07-31T06:36:33.141Z,9.20
2018-07-31T06:37:33.133Z,10.20
2018-07-31T06:38:33.133Z,10.10
2018-07-31T06:39:33.131Z,9.10
2018-07-31T06:40:33.189Z,8.80
2018-07-31T06:41:33.136Z,9.30
2018-07-31T06:42:33.128Z,9.80
2018-07-31T06:43:33.211Z,10.00
2018-07-31T06:44:33.125Z,9.10
2018-07-31T06:45:33.125Z,10.20
2018-07-31T06:46:33.125Z,9.30
2018-07-31T06:47:33.123Z,9.60
2018-07-31T06:48:33.123Z,9.70
2018-07-31T06:49:33.126Z,9.70
2018-07-31T06:50:33.125Z,10.50
2018-07-31T06:51:33.205Z,9.30
2018-07-31T06:52:33.122Z,9.10
2018-07-31T06:53:33.121Z,9.80
2018-07-31T06:54:33.122Z,9.90
2018-07-31T06:55:33.119Z,10.00
2018-07-31T06:56:33.124Z,9.00
2018-07-31T06:57:33.122Z,9.50
2018-07-31T06:58:33.120Z,10.00
2018-07-31T06:59:33.120Z,9.70
2018-07-31T07:00:33.120Z,9.40
2018-07-31T07:01:33.120Z,10.00
2018-07-31T07:02:33.115Z,9.50
2018-07-31T07:03:33.124Z,8.90
2018-07-31T07:04:33.118Z,9.20
2018-07-31T07:05:33.113Z,9.20
2018-07-31T07:06:33.112Z,8.90
2018-07-31T07:07:33.112Z,8.90
2018-07-31T07:08:33.109Z,8.60
2018-07-31T07:09:33.110Z,8.70
2018-07-31T07:10:33.109Z,8.80
2018-07-31T07:11:33.108Z,9.00
2018-07-31T07:12:33.143Z,9.60
2018-07-31T07:13:33.110Z,9.40
2018-07-31T07:14:33.101Z,9.60
2018-07-31T07:15:33.145Z,8.30
2018-07-31T07:16:33.101Z,8.90
2018-07-31T07:17:33.093Z,8.80
2018-07-31T07:18:33.096Z,9.00
2018-07-31T07:19:33.089Z,8.00
2018-07-31T07:20:33.087Z,8.80
2018-07-31T07:21:33.084Z,9.30
2018-07-31T07:22:33.095Z,8.70
2018-07-31T07:23:33.087Z,8.20
2018-07-31T07:24:33.076Z,8.00
2018-07-31T07:25:33.076Z,8.00
2018-07-31T07:26:33.078Z,8.00
2018-07-31T07:27:33.071Z,8.00
2018-07-31T07:28:33.067Z,8.20
2018-07-31T07:29:33.065Z,8.00
2018-07-31T07:30:33.063Z,8.70
2018-07-31T07:31:33.060Z,8.00
2018-07-31T07:32:33.065Z,8.20
2018-07-31T07:33:33.096Z,8.60
2018-07-31T07:34:33.057Z,8.30
2018-07-31T07:35:33.246Z,8.20
2018-07-31T07:36:33.045Z,8.20
2018-07-31T07:37:33.043Z,8.70
2018-07-31T07:38:33.096Z,8.60
2018-07-31T07:39:33.040Z,7.80
2018-07-31T07:40:33.036Z,8.20
2018-07-31T07:41:33.042Z,8.70
2018-07-31T07:42:33.027Z,8.20
2018-07-31T07:43:33.026Z,7.80
2018-07-31T07:44:33.034Z,8.00
2018-07-31T07:45:33.017Z,7.10
2018-07-31T07:46:33.014Z,7.50
2018-07-31T07:47:33.007Z,7.30
2018-07-31T07:48:33.042Z,7.90
2018-07-31T07:49:33.011Z,8.00
2018-07-31T07:50:33.004Z,7.90
2018-07-31T07:51:33.000Z,7.70
2018-07-31T07:52:32.988Z,7.30
2018-07-31T07:53:32.987Z,8.30
2018-07-31T07:54:32.983Z,8.00
2018-07-31T07:55:32.978Z,7.10
2018-07-31T07:56:32.978Z,7.10
2018-07-31T07:57:32.972Z,7.70
2018-07-31T07:58:32.975Z,7.70
2018-07-31T07:59:32.963Z,7.50
2018-07-31T08:00:32.969Z,7.90
2018-07-31T08:01:32.958Z,7.70
2018-07-31T08:02:32.951Z,7.90
2018-07-31T08:03:32.947Z,7.10
2018-07-31T08:04:32.945Z,7.90
2018-07-31T08:05:32.942Z,7.00
2018-07-31T08:06:32.941Z,6.40
2018-07-31T08:07:32.932Z,7.00
2018-07-31T08:08:33.243Z,6.80
2018-07-31T08:09:33.012Z,6.40
2018-07-31T08:10:32.920Z,6.80
2018-07-31T08:11:32.913Z,6.40
2018-07-31T08:12:32.969Z,6.60
2018-07-31T08:13:32.904Z,6.60
2018-07-31T08:14:32.900Z,7.20
2018-07-31T08:15:32.896Z,6.50
2018-07-31T08:16:32.890Z,6.30
2018-07-31T08:17:32.897Z,6.10
2018-07-31T08:18:32.882Z,6.10
2018-07-31T08:19:32.886Z,6.20
2018-07-31T08:20:32.880Z,5.80
2018-07-31T08:21:32.870Z,6.20
2018-07-31T08:22:32.917Z,6.30
2018-07-31T08:23:32.860Z,6.30
2018-07-31T08:24:32.857Z,5.80
2018-07-31T08:25:32.898Z,6.20
2018-07-31T08:26:32.903Z,5.80
2018-07-31T08:27:32.842Z,6.40
2018-07-31T08:28:32.839Z,5.70
2018-07-31T08:30:32.828Z,5.50
2018-07-31T08:31:32.829Z,6.00
2018-07-31T08:32:32.817Z,5.50
2018-07-31T08:33:32.864Z,5.10
2018-07-31T08:34:32.824Z,5.30
2018-07-31T08:35:32.800Z,4.80
2018-07-31T08:36:32.800Z,4.60
2018-07-31T08:37:32.791Z,5.10
2018-07-31T08:38:32.787Z,5.20
2018-07-31T08:39:32.788Z,5.10
2018-07-31T08:40:32.779Z,4.90
2018-07-31T08:41:32.778Z,4.90
2018-07-31T08:42:32.767Z,5.20
2018-07-31T08:43:32.888Z,5.30
2018-07-31T08:44:32.756Z,5.10
2018-07-31T08:45:32.749Z,5.50
2018-07-31T08:46:32.752Z,6.00
2018-07-31T08:47:32.739Z,5.70
2018-07-31T08:48:32.735Z,5.90
2018-07-31T08:49:32.728Z,5.40
2018-07-31T08:50:32.725Z,5.20
2018-07-31T08:51:32.719Z,5.00
2018-07-31T08:52:32.715Z,4.80
2018-07-31T08:53:32.707Z,5.20
2018-07-31T08:54:32.704Z,5.30
2018-07-31T08:55:32.701Z,4.80
2018-07-31T08:56:32.705Z,4.80
2018-07-31T08:57:32.687Z,4.60
2018-07-31T08:58:32.685Z,4.70
2018-07-31T08:59:32.757Z,4.20
2018-07-31T09:00:32.669Z,4.70
2018-07-31T09:01:32.667Z,4.80
2018-07-31T09:02:32.670Z,4.60
2018-07-31T09:03:32.656Z,5.20
2018-07-31T09:04:32.653Z,4.90
2018-07-31T09:05:32.645Z,4.90
2018-07-31T09:06:32.643Z,4.40
2018-07-31T09:07:32.640Z,4.70
2018-07-31T09:08:32.701Z,5.00
2018-07-31T09:09:32.623Z,4.60
2018-07-31T09:10:32.699Z,4.50
2018-07-31T09:11:32.614Z,4.10
2018-07-31T09:12:32.615Z,4.10
2018-07-31T09:13:32.605Z,4.20
2018-07-31T09:14:32.602Z,4.20
2018-07-31T09:15:32.693Z,4.40
2018-07-31T09:16:32.587Z,4.30
2018-07-31T09:17:32.621Z,4.60
2018-07-31T09:18:32.577Z,4.50
2018-07-31T09:19:32.579Z,4.30
2018-07-31T09:20:32.568Z,3.70
2018-07-31T09:21:32.564Z,3.80
2018-07-31T09:22:32.560Z,3.30
2018-07-31T09:23:32.558Z,3.50
2018-07-31T09:24:32.681Z,3.10
2018-07-31T09:25:32.555Z,3.30
2018-07-31T09:26:32.552Z,3.30
2018-07-31T09:27:32.541Z,3.20
2018-07-31T09:28:32.534Z,3.60
2018-07-31T09:29:32.533Z,3.60
2018-07-31T09:30:32.544Z,3.90
2018-07-31T09:31:32.528Z,4.10
2018-07-31T09:32:32.523Z,3.90
2018-07-31T09:33:32.635Z,4.10
2018-07-31T09:34:32.518Z,4.10
2018-07-31T09:35:32.513Z,3.60
2018-07-31T09:36:32.535Z,3.80
2018-07-31T09:37:32.503Z,3.70
2018-07-31T09:38:32.505Z,4.00
2018-07-31T09:39:32.497Z,3.70
2018-07-31T09:40:32.496Z,3.60
2018-07-31T09:41:32.489Z,3.90
2018-07-31T09:42:32.492Z,3.50
2018-07-31T09:43:32.481Z,3.60
2018-07-31T09:44:32.487Z,3.20
2018-07-31T09:45:32.474Z,3.70
2018-07-31T09:46:32.606Z,3.20
2018-07-31T09:47:32.469Z,3.90
2018-07-31T09:48:32.499Z,4.10
2018-07-31T09:49:32.460Z,3.60
2018-07-31T09:50:32.466Z,3.70
2018-07-31T09:51:32.459Z,3.20
2018-07-31T09:52:32.462Z,3.30
2018-07-31T09:53:32.454Z,3.70
2018-07-31T09:54:32.459Z,3.40
2018-07-31T09:55:32.447Z,3.30
2018-07-31T09:56:32.454Z,3.20
2018-07-31T09:57:32.443Z,3.10
2018-07-31T09:58:32.442Z,3.60
2018-07-31T09:59:32.505Z,3.10
2018-07-31T10:00:32.438Z,3.30
2018-07-31T10:01:32.486Z,3.30
2018-07-31T10:02:32.483Z,3.30
2018-07-31T10:03:32.433Z,3.20
2018-07-31T10:04:32.429Z,3.50
2018-07-31T10:05:32.456Z,3.40
2018-07-31T10:06:32.431Z,3.10
2018-07-31T10:07:32.436Z,3.10
2018-07-31T10:08:32.431Z,3.20
2018-07-31T10:09:32.424Z,2.80
2018-07-31T10:10:32.439Z,2.90
2018-07-31T10:11:32.426Z,2.70
2018-07-31T10:12:32.524Z,2.70
2018-07-31T10:13:32.424Z,3.00
2018-07-31T10:14:32.437Z,2.60
2018-07-31T10:15:32.472Z,2.60
2018-07-31T10:16:32.456Z,2.70
2018-07-31T10:17:32.435Z,2.50
2018-07-31T10:18:32.438Z,2.80
2018-07-31T10:19:32.441Z,2.30
2018-07-31T10:20:32.456Z,2.30
2018-07-31T10:21:32.457Z,2.30
2018-07-31T10:22:32.469Z,2.90
2018-07-31T10:23:32.453Z,2.90
2018-07-31T10:24:32.509Z,2.70
2018-07-31T10:25:32.466Z,3.10
2018-07-31T10:26:32.457Z,3.00
2018-07-31T10:27:32.461Z,2.60
2018-07-31T10:28:32.463Z,2.70
2018-07-31T10:29:32.464Z,2.60
2018-07-31T10:30:32.688Z,2.80
2018-07-31T10:31:32.466Z,2.80
2018-07-31T10:32:32.467Z,2.50
2018-07-31T10:33:32.470Z,2.50
2018-07-31T10:34:32.484Z,2.60
2018-07-31T10:35:32.482Z,2.40
2018-07-31T10:36:32.477Z,2.30
2018-07-31T10:37:32.522Z,2.40
2018-07-31T10:38:32.481Z,2.10
2018-07-31T10:39:32.482Z,2.40
2018-07-31T10:40:32.483Z,2.20
2018-07-31T10:41:32.491Z,2.30
2018-07-31T10:42:32.490Z,2.70
2018-07-31T10:43:32.633Z,2.30
2018-07-31T10:44:32.509Z,2.40
2018-07-31T10:45:32.501Z,2.10
2018-07-31T10:46:32.502Z,2.30
2018-07-31T10:47:32.506Z,2.50
2018-07-31T10:48:32.508Z,2.50
2018-07-31T10:49:32.511Z,2.40
2018-07-31T10:50:32.542Z,2.40
2018-07-31T10:51:32.521Z,2.50
2018-07-31T10:52:32.534Z,2.50
2018-07-31T10:53:32.530Z,2.60
2018-07-31T10:54:32.525Z,2.80
2018-07-31T10:55:32.546Z,2.70
2018-07-31T10:56:32.593Z,2.70
2018-07-31T10:57:32.533Z,2.50
2018-07-31T10:58:32.638Z,2.60
2018-07-31T10:59:32.572Z,2.70
2018-07-31T11:00:32.534Z,2.90
2018-07-31T11:01:35.151Z,2.60
2018-07-31T11:02:32.532Z,2.40
2018-07-31T11:03:32.534Z,2.60
2018-07-31T11:05:17.488Z,2.50
2018-07-31T11:06:17.496Z,2.60
2018-07-31T11:07:17.489Z,2.70
2018-07-31T11:08:17.488Z,2.50
2018-07-31T11:09:17.489Z,2.60
2018-07-31T11:10:17.497Z,2.70
2018-07-31T11:11:17.488Z,2.60
2018-07-31T11:12:17.488Z,2.70
2018-07-31T11:13:17.545Z,2.60
2018-07-31T11:14:17.490Z,2.80
2018-07-31T11:15:17.588Z,2.60
2018-07-31T11:16:17.489Z,2.90
2018-07-31T11:17:17.498Z,2.60
2018-07-31T11:18:17.490Z,2.90
2018-07-31T11:19:17.495Z,2.50
2018-07-31T11:20:17.503Z,2.50
2018-07-31T11:21:17.510Z,2.70
2018-07-31T11:22:17.495Z,2.50
2018-07-31T11:23:17.498Z,2.80
2018-07-31T11:24:17.508Z,2.40
2018-07-31T11:25:17.501Z,2.60
2018-07-31T11:26:17.516Z,2.80
2018-07-31T11:27:17.509Z,2.80
2018-07-31T11:28:17.583Z,2.80
2018-07-31T11:29:17.524Z,2.90
2018-07-31T11:30:17.519Z,2.90
2018-07-31T11:31:17.519Z,3.00
2018-07-31T11:32:17.523Z,2.80
2018-07-31T11:33:17.525Z,2.90
2018-07-31T11:34:17.527Z,3.10
2018-07-31T11:35:17.538Z,2.70
2018-07-31T11:36:17.544Z,2.90
2018-07-31T11:37:17.535Z,3.00
2018-07-31T11:38:17.551Z,2.80
2018-07-31T11:39:17.544Z,2.90
2018-07-31T11:40:17.545Z,3.10
2018-07-31T11:41:17.563Z,3.50
2018-07-31T11:42:17.549Z,2.90
2018-07-31T11:43:17.570Z,2.90
2018-07-31T11:44:17.555Z,3.10
2018-07-31T11:45:17.565Z,2.80
2018-07-31T11:46:17.614Z,3.00
2018-07-31T11:47:17.564Z,2.90
2018-07-31T11:48:17.568Z,2.90
2018-07-31T11:49:17.573Z,2.90
2018-07-31T11:50:17.578Z,3.40
2018-07-31T11:51:17.574Z,2.80
2018-07-31T11:52:17.580Z,3.30
2018-07-31T11:53:17.580Z,2.90
2018-07-31T11:54:17.583Z,3.20
2018-07-31T11:55:17.586Z,3.30
2018-07-31T11:56:17.744Z,3.00
2018-07-31T11:57:17.590Z,3.10
2018-07-31T11:58:17.605Z,3.20
2018-07-31T11:59:17.595Z,3.10
2018-07-31T12:00:17.602Z,3.00
2018-07-31T12:01:17.600Z,3.20
2018-07-31T12:02:17.610Z,2.90
2018-07-31T12:03:17.610Z,3.10
2018-07-31T12:04:17.623Z,2.90
2018-07-31T12:05:17.611Z,3.30
2018-07-31T12:06:17.667Z,2.70
2018-07-31T12:07:17.605Z,2.40
2018-07-31T12:08:17.606Z,2.80
2018-07-31T12:09:17.653Z,3.20
2018-07-31T12:10:17.605Z,2.40
2018-07-31T12:11:17.610Z,2.70
2018-07-31T12:12:17.612Z,3.20
2018-07-31T12:13:17.602Z,2.90
2018-07-31T12:14:17.602Z,2.60
2018-07-31T12:15:17.619Z,3.10
2018-07-31T12:16:17.602Z,2.70
2018-07-31T12:17:17.609Z,2.70
2018-07-31T12:18:17.610Z,2.80
2018-07-31T12:19:17.617Z,3.00
2018-07-31T12:20:17.607Z,2.80
2018-07-31T12:21:17.593Z,2.70
2018-07-31T12:22:17.642Z,2.90
2018-07-31T12:23:17.588Z,3.10
2018-07-31T12:24:17.583Z,2.40
2018-07-31T12:25:17.581Z,2.60
2018-07-31T12:26:17.578Z,2.50
2018-07-31T12:27:17.584Z,2.60
2018-07-31T12:28:17.574Z,2.70
2018-07-31T12:29:17.570Z,2.80
2018-07-31T12:30:17.583Z,2.90
2018-07-31T12:31:17.565Z,2.60
2018-07-31T12:32:17.579Z,3.00
2018-07-31T12:33:17.568Z,3.00
2018-07-31T12:34:17.553Z,2.90
2018-07-31T12:35:17.556Z,2.90
2018-07-31T12:36:17.549Z,2.90
2018-07-31T12:37:17.644Z,2.90
2018-07-31T12:38:17.616Z,2.60
2018-07-31T12:39:17.542Z,3.00
2018-07-31T12:40:17.572Z,2.80
2018-07-31T12:41:17.546Z,2.70
2018-07-31T12:42:17.526Z,2.70
2018-07-31T12:43:17.526Z,3.10
2018-07-31T12:44:17.521Z,3.10
2018-07-31T12:45:17.516Z,2.90
2018-07-31T12:46:17.516Z,2.50
2018-07-31T12:47:17.509Z,2.80
2018-07-31T12:48:17.504Z,2.70
2018-07-31T12:49:17.500Z,2.60
2018-07-31T12:50:17.501Z,3.00
2018-07-31T12:51:17.509Z,2.50
2018-07-31T12:52:17.505Z,2.50
2018-07-31T12:53:17.611Z,2.60
2018-07-31T12:54:17.484Z,2.70
2018-07-31T12:55:17.479Z,2.60
2018-07-31T12:56:17.474Z,2.60
2018-07-31T12:57:17.471Z,2.20
2018-07-31T12:58:17.472Z,2.50
2018-07-31T12:59:17.465Z,2.60
2018-07-31T13:00:17.463Z,2.30
2018-07-31T13:01:17.455Z,2.60
2018-07-31T13:02:17.454Z,2.70
2018-07-31T13:03:17.455Z,2.30
2018-07-31T13:04:17.445Z,2.60
2018-07-31T13:05:17.442Z,2.80
2018-07-31T13:06:17.494Z,2.60
2018-07-31T13:07:17.433Z,2.40
2018-07-31T13:08:17.427Z,2.40
2018-07-31T13:09:17.427Z,2.50
2018-07-31T13:10:17.441Z,2.40
2018-07-31T13:11:17.421Z,2.70
2018-07-31T13:12:17.413Z,2.40
2018-07-31T13:13:17.469Z,2.30
2018-07-31T13:14:17.423Z,2.30
2018-07-31T13:15:17.401Z,2.60